Time;durP1;ratioP1;P1;durP2;ratioP2;P2;SDS_P1;SDS_P2;PMS_P1;PMS_P2;Temp;Humidity;BMP_temperature;BMP_pressure;BME280_temperature;BME280_humidity;BME280_pressure;Samples;Min_cycle;Max_cycle;Signal;HPM_P1;HPM_P2
2023/07/08 00:01:56;;;;;;;6.10;3.40;;;;;;;22.35;48.09;101535.78;5027208;28;20067;-79
2023/07/08 00:04:22;;;;;;;6.28;3.72;;;;;;;22.14;48.42;101535.59;5033341;28;20025;-79
2023/07/08 00:06:47;;;;;;;4.05;3.13;;;;;;;22.21;48.80;101529.75;5019235;28;20033;-79
2023/07/08 00:09:13;;;;;;;6.70;3.55;;;;;;;22.22;49.42;101526.94;5021547;28;20017;-79
2023/07/08 00:11:38;;;;;;;4.30;3.50;;;;;;;22.26;48.53;101527.56;5035903;28;21204;-79
2023/07/08 00:14:04;;;;;;;4.63;3.25;;;;;;;22.21;48.76;101535.16;5034162;28;20037;-79
2023/07/08 00:16:29;;;;;;;5.38;3.28;;;;;;;22.16;49.49;101524.72;5023114;28;20014;-79
2023/07/08 00:18:54;;;;;;;4.50;3.65;;;;;;;22.12;52.05;101525.94;5020785;28;20056;-79
2023/07/08 00:21:20;;;;;;;6.18;3.70;;;;;;;22.02;50.59;101525.78;5019302;28;20024;-79
2023/07/08 00:23:50;;;;;;;5.82;3.60;;;;;;;21.91;50.27;101523.03;5017046;28;20124;-79
2023/07/08 00:26:21;;;;;;;4.88;3.22;;;;;;;21.85;51.87;101520.81;5020305;28;20029;-79
2023/07/08 00:28:46;;;;;;;7.87;3.87;;;;;;;21.83;52.97;101517.41;5020321;28;20040;-79
2023/07/08 00:31:12;;;;;;;3.75;3.28;;;;;;;21.75;52.22;101517.97;5021122;28;20025;-79
2023/07/08 00:33:38;;;;;;;7.57;3.90;;;;;;;21.69;51.36;101521.16;5021598;28;20473;-79
2023/07/08 00:36:11;;;;;;;5.13;3.60;;;;;;;21.72;50.30;101514.66;5027725;28;20029;-79
2023/07/08 00:38:36;;;;;;;3.90;3.35;;;;;;;21.71;50.21;101504.88;5028269;28;20029;-79
2023/07/08 00:41:01;;;;;;;6.50;3.67;;;;;;;21.61;50.26;101510.09;5018580;28;20519;-79
2023/07/08 00:43:34;;;;;;;4.33;3.60;;;;;;;21.50;51.44;101510.06;5022247;28;20038;-79
2023/07/08 00:46:17;;;;;;;5.55;3.70;;;;;;;21.51;50.50;101512.63;5022830;28;20044;-79
2023/07/08 00:48:45;;;;;;;4.10;3.47;;;;;;;21.47;50.12;101507.59;5009665;28;20476;-79
2023/07/08 00:51:12;;;;;;;5.88;3.72;;;;;;;21.50;49.78;101499.31;5024104;28;20481;-79
2023/07/08 00:53:38;;;;;;;6.57;3.80;;;;;;;21.55;49.79;101495.28;5019260;28;20032;-79
2023/07/08 00:56:18;;;;;;;6.95;3.50;;;;;;;21.55;49.40;101492.59;5016819;28;20029;-79
2023/07/08 00:58:49;;;;;;;4.40;3.50;;;;;;;21.47;50.33;101499.53;5028614;28;20032;-79
2023/07/08 01:01:15;;;;;;;4.10;3.70;;;;;;;21.43;50.50;101498.03;5022620;28;20492;-79
2023/07/08 01:03:49;;;;;;;4.30;3.50;;;;;;;21.49;50.43;101500.25;5028765;28;20104;-79
2023/07/08 01:06:15;;;;;;;5.97;4.15;;;;;;;21.37;50.80;101505.59;5031914;28;20032;-79
2023/07/08 01:08:40;;;;;;;5.95;3.65;;;;;;;21.34;51.34;101497.75;5023818;28;20049;-79
2023/07/08 01:11:06;;;;;;;7.13;3.70;;;;;;;21.29;51.31;101496.34;5026786;28;20476;-79
2023/07/08 01:13:40;;;;;;;5.47;3.60;;;;;;;21.29;50.75;101496.34;5040562;28;20480;-79
2023/07/08 01:16:07;;;;;;;5.05;3.38;;;;;;;21.24;50.62;101503.91;5017342;28;20040;-79
2023/07/08 01:18:33;;;;;;;4.85;3.70;;;;;;;21.22;50.26;101504.03;5027547;28;20021;-79
2023/07/08 01:21:06;;;;;;;4.57;3.60;;;;;;;21.15;50.70;101508.13;5030885;28;20074;-79
2023/07/08 01:23:32;;;;;;;10.45;4.32;;;;;;;21.14;52.69;101498.34;5033303;28;20025;-79
2023/07/08 01:25:59;;;;;;;4.35;3.95;;;;;;;21.16;52.59;101504.47;5023680;28;20079;-79
2023/07/08 01:28:25;;;;;;;7.07;3.80;;;;;;;21.08;51.39;101499.69;5025730;28;20301;-79
2023/07/08 01:30:51;;;;;;;4.65;3.65;;;;;;;21.06;51.44;101498.06;5017648;28;20065;-79
2023/07/08 01:33:19;;;;;;;5.57;3.55;;;;;;;20.90;52.00;101492.97;5007907;28;20105;-79
2023/07/08 01:35:46;;;;;;;4.57;3.83;;;;;;;20.94;51.21;101498.94;5011338;28;20033;-79
2023/07/08 01:38:15;;;;;;;5.80;3.95;;;;;;;20.92;52.44;101493.69;5016610;28;20447;-79
2023/07/08 01:40:49;;;;;;;8.02;3.90;;;;;;;21.02;51.28;101493.88;5021018;28;20037;-79
2023/07/08 01:43:15;;;;;;;6.72;4.40;;;;;;;21.01;52.66;101489.47;5016462;28;20040;-79
2023/07/08 01:45:41;;;;;;;5.68;4.07;;;;;;;20.95;51.76;101493.47;5011483;28;20030;-79
2023/07/08 01:48:10;;;;;;;3.70;3.40;;;;;;;21.00;54.44;101491.31;5016841;28;20030;-79
2023/07/08 01:50:40;;;;;;;4.18;3.60;;;;;;;20.93;52.67;101483.78;5015348;28;20536;-79
2023/07/08 01:53:11;;;;;;;5.60;3.60;;;;;;;20.95;51.97;101493.47;5031302;28;20638;-79
2023/07/08 01:55:37;;;;;;;6.90;3.92;;;;;;;20.86;55.14;101489.63;5011800;28;20021;-79
2023/07/08 01:58:02;;;;;;;5.32;3.80;;;;;;;20.88;52.32;101476.94;5022151;28;20033;-79
2023/07/08 02:00:27;;;;;;;6.53;3.88;;;;;;;20.85;53.04;101477.16;5019135;28;20080;-79
2023/07/08 02:02:53;;;;;;;6.05;3.83;;;;;;;20.82;52.58;101468.47;5015230;28;20041;-79
2023/07/08 02:05:18;;;;;;;4.78;3.80;;;;;;;20.74;54.60;101462.78;5018680;28;20120;-79
2023/07/08 02:07:43;;;;;;;6.43;4.25;;;;;;;20.68;52.82;101458.72;5021012;28;20319;-79
2023/07/08 02:10:09;;;;;;;6.88;3.85;;;;;;;20.61;52.96;101457.44;5018276;28;20033;-79
2023/07/08 02:12:34;;;;;;;4.10;3.70;;;;;;;20.59;55.67;101468.31;5025164;28;20038;-79
2023/07/08 02:15:00;;;;;;;4.35;3.95;;;;;;;20.47;54.78;101454.84;5022400;28;20099;-79
2023/07/08 02:17:28;;;;;;;5.20;3.60;;;;;;;20.40;54.41;101454.44;5023138;28;20032;-79
2023/07/08 02:19:54;;;;;;;4.50;3.50;;;;;;;20.41;54.83;101453.47;5021073;28;20299;-79
2023/07/08 02:22:19;;;;;;;5.07;3.97;;;;;;;20.39;54.30;101448.22;5022183;28;20025;-79
2023/07/08 02:24:45;;;;;;;4.88;3.80;;;;;;;20.39;54.07;101448.22;5027536;28;20661;-79
2023/07/08 02:27:10;;;;;;;4.05;3.65;;;;;;;20.38;54.10;101441.16;5026445;28;20044;-79
2023/07/08 02:29:37;;;;;;;6.43;4.05;;;;;;;20.43;53.32;101443.50;5030336;28;20135;-79
2023/07/08 02:32:03;;;;;;;4.85;4.13;;;;;;;20.31;53.73;101439.00;5021341;28;20480;-79
2023/07/08 02:34:28;;;;;;;4.47;3.67;;;;;;;20.20;55.14;101442.47;5016771;28;20055;-79
2023/07/08 02:36:54;;;;;;;7.43;4.65;;;;;;;20.23;54.37;101438.69;5023890;28;20016;-79
2023/07/08 02:39:19;;;;;;;5.70;4.15;;;;;;;20.13;58.18;101438.47;5024070;28;20393;-79
2023/07/08 02:41:44;;;;;;;4.38;3.95;;;;;;;20.12;54.78;101434.06;5020506;28;20470;-79
2023/07/08 02:44:09;;;;;;;3.75;3.10;;;;;;;20.14;58.00;101440.19;5021587;28;20032;-79
2023/07/08 02:46:35;;;;;;;5.75;4.10;;;;;;;20.09;55.34;101439.66;5014746;28;20026;-79
2023/07/08 02:49:00;;;;;;;5.57;3.45;;;;;;;20.10;55.51;101430.66;5017348;28;20029;-79
2023/07/08 02:51:25;;;;;;;4.22;3.83;;;;;;;20.15;54.51;101433.03;5021558;28;20018;-79
2023/07/08 02:53:50;;;;;;;6.13;3.90;;;;;;;20.16;53.96;101434.72;5011827;28;20542;-79
2023/07/08 02:56:16;;;;;;;5.82;4.20;;;;;;;20.06;55.05;101434.53;5017731;28;20022;-79
2023/07/08 02:58:41;;;;;;;7.75;4.30;;;;;;;20.02;54.89;101441.94;5026124;28;20040;-79
2023/07/08 03:01:06;;;;;;;4.60;3.65;;;;;;;20.06;54.53;101443.44;5025462;28;20383;-79
2023/07/08 03:03:32;;;;;;;5.07;3.80;;;;;;;20.03;55.28;101446.31;5024978;28;20039;-79
2023/07/08 03:06:00;;;;;;;5.90;3.80;;;;;;;20.02;54.59;101451.81;5020926;28;20040;-79
2023/07/08 03:08:26;;;;;;;5.25;3.53;;;;;;;19.94;55.73;101452.34;5018390;28;20030;-79
2023/07/08 03:10:57;;;;;;;4.68;3.55;;;;;;;19.95;55.92;101453.19;5025886;28;20093;-79
2023/07/08 03:13:23;;;;;;;5.38;3.85;;;;;;;19.88;56.03;101456.31;5017619;28;20041;-79
2023/07/08 03:15:50;;;;;;;5.60;4.03;;;;;;;19.82;56.76;101459.44;5026236;28;20334;-79
2023/07/08 03:18:15;;;;;;;6.38;3.55;;;;;;;19.79;57.03;101453.41;5027093;28;20032;-79
2023/07/08 03:20:41;;;;;;;6.05;4.28;;;;;;;19.72;57.26;101444.03;5028205;28;20029;-79
2023/07/08 03:23:06;;;;;;;4.97;3.72;;;;;;;19.64;56.16;101449.97;5031286;28;20035;-79
2023/07/08 03:25:31;;;;;;;6.35;3.95;;;;;;;19.60;57.61;101456.50;5028034;28;20033;-79
2023/07/08 03:27:57;;;;;;;4.97;4.40;;;;;;;19.58;58.45;101455.69;5027894;28;20500;-79
2023/07/08 03:30:23;;;;;;;6.35;4.15;;;;;;;19.53;58.80;101460.50;5034134;28;20477;-79
2023/07/08 03:32:48;;;;;;;5.72;4.28;;;;;;;19.45;59.92;101455.69;5041400;28;20030;-79
2023/07/08 03:35:13;;;;;;;4.85;4.05;;;;;;;19.44;57.50;101453.94;5024675;28;20029;-79
2023/07/08 03:37:38;;;;;;;7.60;4.53;;;;;;;19.47;59.52;101464.47;5027153;28;20028;-79
2023/07/08 03:40:04;;;;;;;4.35;3.95;;;;;;;19.37;59.32;101461.56;5026197;28;20045;-79
2023/07/08 03:42:30;;;;;;;4.50;3.70;;;;;;;19.40;57.72;101465.88;5032860;28;20045;-79
2023/07/08 03:44:55;;;;;;;4.70;4.20;;;;;;;19.46;57.11;101459.22;5023502;28;20399;-79
2023/07/08 03:47:20;;;;;;;4.60;3.90;;;;;;;19.46;56.71;101465.44;5037057;28;20020;-79
2023/07/08 03:49:45;;;;;;;5.97;4.57;;;;;;;19.25;57.87;101465.03;5030613;28;20476;-79
2023/07/08 03:52:16;;;;;;;8.65;4.53;;;;;;;19.32;57.71;101463.69;5025007;28;20166;-79
2023/07/08 03:54:41;;;;;;;6.35;4.53;;;;;;;19.34;57.92;101458.22;5018495;28;20722;-79
2023/07/08 03:57:06;;;;;;;6.75;4.57;;;;;;;19.31;57.70;101459.28;5018165;28;20037;-79
2023/07/08 03:59:32;;;;;;;7.00;4.10;;;;;;;19.33;57.31;101462.72;5015038;28;20543;-79
2023/07/08 04:01:57;;;;;;;6.97;4.38;;;;;;;19.35;57.55;101468.84;5025278;28;20029;-79
2023/07/08 04:04:22;;;;;;;4.93;3.83;;;;;;;19.32;59.49;101471.72;5017084;28;20165;-79
2023/07/08 04:06:50;;;;;;;6.32;4.28;;;;;;;19.30;57.86;101472.78;5023556;28;20112;-79
2023/07/08 04:09:15;;;;;;;6.97;4.65;;;;;;;19.33;58.59;101477.94;5038339;28;20037;-79
2023/07/08 04:11:41;;;;;;;6.25;4.45;;;;;;;19.33;59.99;101473.44;5016875;28;20037;-79
2023/07/08 04:14:09;;;;;;;7.15;4.53;;;;;;;19.30;57.90;101473.63;5021612;28;20083;-79
2023/07/08 04:16:45;;;;;;;5.97;4.63;;;;;;;19.36;59.87;101478.59;5016616;28;20386;-79
2023/07/08 04:19:14;;;;;;;6.45;4.15;;;;;;;19.39;60.33;101480.22;5016490;28;20120;-79
2023/07/08 04:21:40;;;;;;;5.03;3.90;;;;;;;19.41;56.94;101472.94;5023649;28;20074;-79
2023/07/08 04:24:05;;;;;;;6.65;4.38;;;;;;;19.45;58.26;101478.97;5024783;28;20477;-79
2023/07/08 04:26:35;;;;;;;5.97;4.57;;;;;;;19.45;60.08;101477.13;5020160;28;20017;-79
2023/07/08 04:29:00;;;;;;;5.70;3.90;;;;;;;19.44;58.23;101472.72;5016776;28;20430;-79
2023/07/08 04:31:26;;;;;;;6.57;4.75;;;;;;;19.48;57.86;101478.72;5018104;28;20460;-79
2023/07/08 04:33:51;;;;;;;4.95;4.40;;;;;;;19.53;56.86;101481.97;5012467;28;20033;-79
2023/07/08 04:36:16;;;;;;;5.88;4.47;;;;;;;19.57;59.48;101472.75;5021913;28;20079;-79
2023/07/08 04:38:46;;;;;;;5.95;4.50;;;;;;;19.52;60.93;101470.38;5026874;28;20048;-79
2023/07/08 04:41:11;;;;;;;7.35;4.10;;;;;;;19.57;58.70;101467.38;5023946;28;20052;-79
2023/07/08 04:43:36;;;;;;;6.57;4.20;;;;;;;19.60;58.64;101465.41;5026703;28;20420;-79
2023/07/08 04:46:02;;;;;;;5.20;4.70;;;;;;;19.60;58.70;101472.59;5023141;28;20123;-79
2023/07/08 04:48:27;;;;;;;6.95;4.35;;;;;;;19.67;61.32;101468.50;5021192;28;20480;-79
2023/07/08 04:50:53;;;;;;;5.10;4.00;;;;;;;19.76;58.35;101477.75;5023002;28;20025;-79
2023/07/08 04:53:18;;;;;;;5.40;4.40;;;;;;;19.76;59.33;101475.06;5028776;28;20034;-79
2023/07/08 04:55:47;;;;;;;5.70;4.65;;;;;;;19.80;58.81;101476.59;5022990;28;20041;-79
2023/07/08 04:58:13;;;;;;;5.93;4.60;;;;;;;19.86;58.30;101471.66;5033551;28;21100;-79
2023/07/08 05:00:38;;;;;;;5.80;4.85;;;;;;;19.87;58.04;101476.06;5021844;28;20025;-79
2023/07/08 05:03:03;;;;;;;6.20;4.63;;;;;;;19.94;58.02;101470.25;5019321;28;20018;-79
2023/07/08 05:05:29;;;;;;;5.47;4.30;;;;;;;19.98;57.56;101469.94;5030277;28;20017;-79
2023/07/08 05:07:54;;;;;;;5.50;4.50;;;;;;;20.06;57.59;101472.09;5024038;28;20464;-79
2023/07/08 05:10:20;;;;;;;6.30;4.55;;;;;;;20.10;58.18;101469.09;5036422;28;20055;-79
2023/07/08 05:12:46;;;;;;;7.72;4.93;;;;;;;20.19;58.21;101467.59;5019902;28;20036;-79
2023/07/08 05:15:12;;;;;;;9.13;4.95;;;;;;;20.29;57.46;101473.16;5031709;28;20392;-79
2023/07/08 05:17:39;;;;;;;8.48;4.75;;;;;;;20.43;58.42;101475.72;5025300;28;20029;-79
2023/07/08 05:20:07;;;;;;;5.78;4.75;;;;;;;20.52;58.32;101471.56;5029721;28;20480;-79
2023/07/08 05:22:33;;;;;;;10.02;4.88;;;;;;;20.68;56.79;101466.78;5017174;28;20025;-79
2023/07/08 05:24:58;;;;;;;6.28;4.35;;;;;;;20.74;57.31;101469.00;5027454;28;20079;-79
2023/07/08 05:27:24;;;;;;;6.75;4.97;;;;;;;20.79;56.91;101472.22;5014690;28;20024;-79
2023/07/08 05:29:50;;;;;;;5.25;4.55;;;;;;;20.79;58.11;101472.22;5010557;28;20377;-79
2023/07/08 05:32:16;;;;;;;6.47;5.18;;;;;;;20.84;57.19;101471.88;5021557;28;20400;-79
2023/07/08 05:34:41;;;;;;;6.10;5.03;;;;;;;20.91;57.26;101461.56;5012087;28;20099;-79
2023/07/08 05:37:07;;;;;;;5.95;5.13;;;;;;;20.95;56.43;101465.75;5015365;28;20022;-79
2023/07/08 05:39:33;;;;;;;8.43;5.20;;;;;;;21.03;58.09;101466.00;5016205;28;20105;-79
2023/07/08 05:41:58;;;;;;;6.70;4.63;;;;;;;21.09;55.99;101466.44;5009250;28;20501;-79
2023/07/08 05:44:24;;;;;;;6.30;4.60;;;;;;;21.13;56.58;101459.84;5026208;28;20032;-79
2023/07/08 05:46:50;;;;;;;7.50;4.82;;;;;;;21.17;56.64;101460.50;5011576;28;20128;-79
2023/07/08 05:49:16;;;;;;;6.50;4.90;;;;;;;21.18;56.69;101467.59;5025981;28;20057;-79
2023/07/08 05:51:41;;;;;;;5.85;4.47;;;;;;;21.25;56.89;101465.28;5022006;28;20021;-79
2023/07/08 05:54:06;;;;;;;5.10;4.60;;;;;;;21.20;56.84;101460.25;5028218;28;20513;-79
2023/07/08 05:56:31;;;;;;;6.85;4.60;;;;;;;21.21;56.30;101459.25;5031232;28;20116;-79
2023/07/08 05:58:57;;;;;;;5.95;4.55;;;;;;;21.25;56.20;101459.91;5037190;28;20388;-79
2023/07/08 06:01:22;;;;;;;6.63;4.53;;;;;;;21.28;57.25;101460.53;5024529;28;20105;-79
2023/07/08 06:03:48;;;;;;;7.57;5.28;;;;;;;21.35;57.13;101469.00;5024839;28;20038;-79
2023/07/08 06:06:13;;;;;;;7.63;5.03;;;;;;;21.37;55.31;101470.63;5033524;28;20531;-79
2023/07/08 06:08:39;;;;;;;5.30;4.13;;;;;;;21.44;56.24;101470.16;5031903;28;20064;-79
2023/07/08 06:11:04;;;;;;;6.53;5.10;;;;;;;21.53;55.98;101474.84;5022317;28;20401;-79
2023/07/08 06:13:29;;;;;;;6.75;4.70;;;;;;;21.65;54.91;101473.91;5024968;28;20022;-79
2023/07/08 06:15:55;;;;;;;6.25;4.55;;;;;;;21.75;54.53;101474.06;5021457;28;20106;-79
2023/07/08 06:18:20;;;;;;;6.55;4.97;;;;;;;21.84;54.21;101479.59;5027916;28;20033;-79
2023/07/08 06:20:57;;;;;;;6.40;4.70;;;;;;;21.99;54.88;101479.38;5029484;28;20025;-78
2023/07/08 06:23:23;;;;;;;7.97;4.75;;;;;;;22.12;54.43;101469.38;5028798;28;20109;-79
2023/07/08 06:25:48;;;;;;;6.20;4.57;;;;;;;22.20;54.64;101469.66;5021442;28;20258;-78
2023/07/08 06:28:14;;;;;;;7.38;5.25;;;;;;;22.30;54.60;101476.00;5018072;28;20136;-79
2023/07/08 06:30:39;;;;;;;11.05;4.78;;;;;;;22.47;54.26;101480.03;5021772;28;20080;-79
2023/07/08 06:33:05;;;;;;;8.98;4.95;;;;;;;22.64;52.91;101481.38;5022214;28;20029;-79
2023/07/08 06:35:30;;;;;;;9.05;5.20;;;;;;;22.80;51.59;101480.97;5029800;28;20107;-80
2023/07/08 06:37:55;;;;;;;8.63;5.07;;;;;;;22.89;51.54;101477.56;5025590;28;20033;-79
2023/07/08 06:40:21;;;;;;;8.38;4.90;;;;;;;23.00;52.85;101477.56;5015478;28;20130;-79
2023/07/08 06:42:46;;;;;;;8.90;4.40;;;;;;;23.03;52.44;101479.97;5020144;28;20029;-79
2023/07/08 06:45:11;;;;;;;9.55;5.50;;;;;;;23.19;51.89;101486.84;5022996;28;20033;-79
2023/07/08 06:47:37;;;;;;;9.95;6.47;;;;;;;23.46;50.22;101473.72;5022888;28;20513;-79
2023/07/08 06:50:02;;;;;;;6.60;5.03;;;;;;;23.61;50.00;101471.56;5039422;28;20279;-79
2023/07/08 06:52:33;;;;;;;7.82;5.13;;;;;;;23.70;49.50;101469.97;5024584;28;20393;-79
2023/07/08 06:54:59;;;;;;;8.57;5.82;;;;;;;23.75;49.27;101481.22;5026518;28;20033;-79
2023/07/08 06:57:24;;;;;;;10.00;5.75;;;;;;;23.88;47.95;101479.19;5024036;28;20029;-79
2023/07/08 06:59:49;;;;;;;8.20;5.75;;;;;;;23.89;48.81;101473.63;5019342;28;20087;-79
2023/07/08 07:02:16;;;;;;;7.95;5.40;;;;;;;24.11;49.19;101479.88;5021446;28;20396;-78
2023/07/08 07:04:42;;;;;;;7.95;5.57;;;;;;;24.29;48.31;101469.28;5019662;28;20033;-79
2023/07/08 07:07:07;;;;;;;7.63;5.43;;;;;;;24.50;49.16;101469.28;5023310;28;20533;-79
2023/07/08 07:09:32;;;;;;;10.45;6.10;;;;;;;24.63;48.00;101461.78;5020176;28;20066;-79
2023/07/08 07:11:58;;;;;;;7.13;5.95;;;;;;;24.57;46.26;101465.88;5018653;28;20568;-79
2023/07/08 07:14:23;;;;;;;9.63;6.10;;;;;;;24.57;47.16;101463.16;5023226;28;20052;-78
2023/07/08 07:16:48;;;;;;;7.25;6.05;;;;;;;24.75;48.00;101459.81;5014349;28;20276;-80
2023/07/08 07:19:13;;;;;;;7.27;5.60;;;;;;;25.12;46.56;101460.91;5019844;28;20083;-78
2023/07/08 07:21:39;;;;;;;8.27;6.10;;;;;;;25.26;46.33;101459.63;5018730;28;20322;-78
2023/07/08 07:24:06;;;;;;;11.27;6.00;;;;;;;25.26;46.47;101456.06;5022746;28;20075;-77
2023/07/08 07:26:32;;;;;;;8.57;5.28;;;;;;;25.25;48.56;101457.06;5018082;28;20025;-77
2023/07/08 07:28:57;;;;;;;8.27;5.85;;;;;;;25.43;46.02;101461.63;5013025;28;20034;-77
2023/07/08 07:31:22;;;;;;;8.20;5.95;;;;;;;25.58;46.16;101463.91;5030069;28;20037;-79
2023/07/08 07:33:48;;;;;;;8.20;5.63;;;;;;;26.04;45.98;101470.41;5024676;28;20389;-79
2023/07/08 07:36:13;;;;;;;11.53;5.77;;;;;;;26.68;42.85;101465.03;5026061;28;20076;-79
2023/07/08 07:38:38;;;;;;;14.80;7.07;;;;;;;27.36;40.14;101464.59;5039956;28;20307;-79
2023/07/08 07:41:06;;;;;;;10.88;6.03;;;;;;;27.95;39.07;101464.91;5016687;28;20045;-79
2023/07/08 07:43:33;;;;;;;12.20;6.53;;;;;;;28.47;38.63;101463.03;5022247;28;20065;-79
2023/07/08 07:45:58;;;;;;;10.95;6.47;;;;;;;29.15;38.60;101461.22;5011078;28;20472;-79
2023/07/08 07:48:24;;;;;;;7.85;5.63;;;;;;;29.76;37.59;101465.34;5026207;28;20032;-78
2023/07/08 07:50:51;;;;;;;11.20;6.70;;;;;;;30.18;34.82;101464.28;5029493;28;20025;-82
2023/07/08 07:53:17;;;;;;;10.10;5.93;;;;;;;30.17;37.73;101460.72;5017857;28;20088;-82
2023/07/08 07:55:42;;;;;;;8.23;6.10;;;;;;;30.38;36.03;101473.75;5013387;28;20026;-82
2023/07/08 07:58:07;;;;;;;12.18;6.75;;;;;;;30.80;35.64;101461.66;5017577;28;20026;-82
2023/07/08 08:00:33;;;;;;;12.98;7.05;;;;;;;31.55;32.59;101468.34;5015396;28;20409;-82
2023/07/08 08:02:58;;;;;;;12.05;7.05;;;;;;;31.71;33.69;101457.25;5018543;28;20036;-81
2023/07/08 08:05:24;;;;;;;10.68;5.95;;;;;;;31.85;32.51;101464.69;5019078;28;20025;-82
2023/07/08 08:07:49;;;;;;;9.02;5.50;;;;;;;31.89;33.96;101463.25;5033241;28;20600;-81
2023/07/08 08:10:14;;;;;;;9.57;5.93;;;;;;;32.00;32.44;101451.88;5017248;28;20039;-81
2023/07/08 08:12:40;;;;;;;11.25;5.38;;;;;;;32.10;32.86;101467.16;5015147;28;20297;-82
2023/07/08 08:15:06;;;;;;;10.70;6.22;;;;;;;32.33;32.59;101462.44;5019521;28;20065;-82
2023/07/08 08:17:31;;;;;;;7.55;5.15;;;;;;;32.57;32.77;101464.06;5022069;28;20021;-82
2023/07/08 08:19:57;;;;;;;10.40;5.53;;;;;;;32.41;32.05;101461.50;5021205;28;20022;-82
2023/07/08 08:22:22;;;;;;;11.67;6.27;;;;;;;32.28;31.61;101470.38;5022008;28;20318;-82
2023/07/08 08:24:47;;;;;;;10.10;5.57;;;;;;;32.78;30.66;101481.56;5018745;28;20345;-82
2023/07/08 08:27:12;;;;;;;9.88;5.90;;;;;;;32.56;31.72;101467.00;5016051;28;20034;-81
2023/07/08 08:29:38;;;;;;;8.23;5.77;;;;;;;32.91;30.85;101471.66;5026162;28;20607;-81
2023/07/08 08:32:03;;;;;;;8.07;5.82;;;;;;;33.78;29.66;101478.88;5022745;28;20291;-81
2023/07/08 08:34:29;;;;;;;8.48;5.70;;;;;;;33.67;29.57;101479.38;5022868;28;20035;-82
2023/07/08 08:36:55;;;;;;;8.25;6.00;;;;;;;34.31;30.63;101483.88;5033215;28;20013;-82
2023/07/08 08:39:21;;;;;;;10.38;5.70;;;;;;;34.65;28.31;101481.16;5018437;28;20505;-81
2023/07/08 08:41:46;;;;;;;10.98;5.40;;;;;;;34.94;28.96;101479.97;5015101;28;20111;-82
2023/07/08 08:44:26;;;;;;;10.48;5.97;;;;;;;34.62;29.36;101494.44;5019555;28;20071;-82
2023/07/08 08:47:06;;;;;;;8.55;6.10;;;;;;;34.74;29.59;101490.91;5010928;28;20022;-82
2023/07/08 08:49:44;;;;;;;8.88;5.53;;;;;;;35.01;28.77;101480.88;5019612;28;20481;-82
2023/07/08 08:52:10;;;;;;;8.40;5.40;;;;;;;35.12;28.34;101484.94;5024031;28;20534;-82
2023/07/08 08:54:36;;;;;;;8.20;6.20;;;;;;;35.18;27.54;101486.84;5018195;28;20030;-82
2023/07/08 08:57:37;;;;;;;6.85;6.15;;;;;;;35.21;28.31;101491.09;5031017;28;20494;-82
2023/07/08 09:00:03;;;;;;;9.35;6.00;;;;;;;34.73;29.44;101482.84;5021318;28;20032;-82
2023/07/08 09:02:37;;;;;;;9.38;6.13;;;;;;;34.67;28.52;101489.19;5009393;28;20029;-82
2023/07/08 09:05:11;;;;;;;10.00;6.03;;;;;;;34.95;28.65;101492.66;5014897;28;20639;-82
2023/07/08 09:07:46;;;;;;;9.07;6.35;;;;;;;34.64;28.01;101497.81;5017585;28;20044;-82
2023/07/08 09:10:27;;;;;;;8.70;6.03;;;;;;;34.78;29.30;101503.16;5021418;28;20594;-82
2023/07/08 09:12:55;;;;;;;11.07;6.20;;;;;;;34.97;27.68;101495.22;5018358;28;20453;-82
2023/07/08 09:15:21;;;;;;;8.80;6.35;;;;;;;35.27;27.56;101496.59;5011090;28;20022;-82
2023/07/08 09:17:47;;;;;;;9.43;6.22;;;;;;;35.31;27.99;101491.53;5017035;28;20064;-82
2023/07/08 09:20:29;;;;;;;10.82;6.57;;;;;;;35.32;28.55;101492.38;5023572;28;20017;-83
2023/07/08 09:23:20;;;;;;;8.77;6.35;;;;;;;34.73;27.83;101491.09;5015969;28;20350;-82
2023/07/08 09:25:50;;;;;;;9.90;6.65;;;;;;;34.21;29.20;101484.25;5023897;28;20028;-82
2023/07/08 09:28:15;;;;;;;8.73;6.28;;;;;;;34.23;29.97;101488.50;5019067;28;20025;-83
2023/07/08 09:30:41;;;;;;;9.20;6.88;;;;;;;34.03;27.41;101479.28;5012930;28;20469;-84
2023/07/08 09:33:08;;;;;;;9.27;6.45;;;;;;;34.25;30.44;101482.81;5032113;28;20033;-84
2023/07/08 09:35:48;;;;;;;8.13;6.78;;;;;;;34.50;29.02;101484.00;5018192;28;20049;-82
2023/07/08 09:38:17;;;;;;;11.88;6.75;;;;;;;34.53;27.04;101484.69;5034026;28;20029;-82
2023/07/08 09:40:56;;;;;;;11.43;6.20;;;;;;;34.40;28.49;101491.75;5023616;28;20517;-82
2023/07/08 09:43:25;;;;;;;8.15;6.18;;;;;;;34.69;27.08;101487.91;5014793;28;20465;-84
2023/07/08 09:45:51;;;;;;;9.52;7.40;;;;;;;34.33;26.98;101481.81;5018916;28;20036;-84
2023/07/08 09:48:21;;;;;;;9.82;6.85;;;;;;;34.69;27.30;101476.91;5023547;28;20113;-82
2023/07/08 09:50:50;;;;;;;9.77;6.20;;;;;;;34.96;28.94;101468.81;5015469;28;20121;-82
2023/07/08 09:53:16;;;;;;;9.38;6.50;;;;;;;35.08;28.88;101469.91;5018335;28;20046;-82
2023/07/08 09:55:42;;;;;;;9.68;6.53;;;;;;;35.22;28.32;101468.88;5028916;28;20041;-82
2023/07/08 09:58:13;;;;;;;9.30;6.70;;;;;;;35.48;28.71;101462.56;5022176;28;20068;-82
2023/07/08 10:00:40;;;;;;;8.15;6.78;;;;;;;35.60;27.11;101467.44;5015416;28;20033;-81
2023/07/08 10:03:17;;;;;;;10.98;6.97;;;;;;;35.44;28.79;101466.78;5024483;28;20822;-82
2023/07/08 10:05:46;;;;;;;10.82;6.70;;;;;;;35.85;28.97;101471.22;5028733;28;20558;-82
2023/07/08 10:08:16;;;;;;;11.10;6.95;;;;;;;35.70;27.51;101467.88;5019836;28;20017;-82
2023/07/08 10:10:42;;;;;;;9.45;6.70;;;;;;;35.46;27.79;101469.34;5023283;28;20451;-82
2023/07/08 10:13:26;;;;;;;8.82;6.40;;;;;;;35.99;28.60;101470.19;5024921;28;20043;-82
2023/07/08 10:16:12;;;;;;;9.15;6.13;;;;;;;35.98;27.99;101465.75;5018801;28;20112;-82
2023/07/08 10:18:37;;;;;;;7.78;6.40;;;;;;;36.49;27.47;101461.41;5015942;28;20030;-82
2023/07/08 10:21:06;;;;;;;10.70;6.28;;;;;;;36.62;26.32;101466.88;5028203;28;20037;-82
2023/07/08 10:23:54;;;;;;;9.75;6.93;;;;;;;36.90;26.92;101465.66;5024361;28;20025;-82
2023/07/08 10:26:26;;;;;;;11.90;6.35;;;;;;;36.92;26.20;101469.91;5020049;28;20472;-82
2023/07/08 10:29:19;;;;;;;9.63;6.22;;;;;;;37.17;25.42;101475.50;5013042;28;20037;-82
2023/07/08 10:32:01;;;;;;;7.95;6.60;;;;;;;37.20;24.59;101468.69;5011683;28;20025;-83
2023/07/08 10:34:42;;;;;;;9.98;6.75;;;;;;;37.41;23.97;101464.75;5015940;28;20036;-82
2023/07/08 10:37:27;;;;;;;8.80;6.35;;;;;;;37.79;23.46;101467.38;5012020;28;20022;-83
2023/07/08 10:39:57;;;;;;;10.80;6.30;;;;;;;37.88;23.23;101467.97;5016210;28;20034;-82
2023/07/08 10:42:31;;;;;;;9.88;6.68;;;;;;;38.20;23.99;101469.56;5040420;28;20038;-83
2023/07/08 10:45:14;;;;;;;10.25;6.20;;;;;;;38.28;22.16;101471.97;5016963;28;20109;-82
2023/07/08 10:47:56;;;;;;;10.73;6.22;;;;;;;38.36;23.02;101470.03;5015609;28;20036;-82
2023/07/08 10:50:29;;;;;;;9.82;6.00;;;;;;;38.41;22.98;101476.56;5028668;28;20545;-83
2023/07/08 10:53:30;;;;;;;9.25;6.45;;;;;;;37.96;24.03;101471.28;5028885;28;20075;-82
2023/07/08 10:56:01;;;;;;;8.75;6.65;;;;;;;38.19;22.75;101473.41;5016312;28;20099;-83
2023/07/08 10:58:58;;;;;;;10.63;6.60;;;;;;;38.31;23.96;101476.25;5030769;28;20057;-83
2023/07/08 11:01:48;;;;;;;9.45;6.32;;;;;;;38.11;22.48;101468.16;5019205;28;20032;-83
2023/07/08 11:04:32;;;;;;;9.93;6.60;;;;;;;38.14;22.90;101473.22;5022973;28;20117;-83
2023/07/08 11:07:04;;;;;;;9.23;6.65;;;;;;;38.36;20.92;101470.88;5027869;28;20026;-83
2023/07/08 11:09:57;;;;;;;10.32;6.38;;;;;;;38.54;20.30;101470.88;5020156;28;20033;-82
2023/07/08 11:12:38;;;;;;;10.93;7.50;;;;;;;38.77;20.46;101470.16;5019103;28;20037;-82
2023/07/08 11:15:22;;;;;;;9.10;6.40;;;;;;;38.95;20.91;101471.22;5035835;28;20036;-83
2023/07/08 11:17:50;;;;;;;7.95;6.68;;;;;;;38.87;21.40;101464.09;5027952;28;20025;-82
2023/07/08 11:21:04;;;;;;;13.38;7.05;;;;;;;39.04;21.51;101470.66;5020734;28;20046;-83
2023/07/08 11:23:40;;;;;;;8.93;6.57;;;;;;;38.64;20.82;101470.31;5008237;28;20041;-83
2023/07/08 11:26:24;;;;;;;9.32;6.60;;;;;;;39.10;21.52;101471.63;5042209;28;20029;-83
2023/07/08 11:28:53;;;;;;;8.75;6.07;;;;;;;39.26;20.95;101467.34;5025721;28;20038;-83
2023/07/08 11:31:19;;;;;;;8.88;6.72;;;;;;;38.57;21.69;101465.94;5020929;28;20461;-83